Latest Weather Observations for Tidbinbilla

IDN60801

Issued at 11:43 pm EST Friday 16 April 2021 (issued every 10 minutes, with the page automatically refreshed every 10 minutes)

About weather observations | Map of weather stations | Latest weather observations for NSW | Other Formats
Station Details ID: 250069 Name: TIDBINBILLA (PCS) Lat: -35.46 Lon: 148.94 Height: 883.0 m

Portable automatic weather stations (PAWS) are operated by other organisations, such as Fire and Emergency Services, and are included here by agreement. Portable stations may be deployed to a location for a short period and their location may be subject to change without notice. Wind observations from these stations are provided from heights of either three (3) or ten (10) metres above ground level (AGL).

Data from the previous 72 hours. | See also: Recent months for locations in New South Wales
Date/Time
EST
Temp
°C
App
Temp
°C
Dew
Point
°C
Rel
Hum
%
Delta-T
°C
Wind Press
QNH
hPa
Press
MSL
hPa
Rain since
9am
mm
Dir  Spd
km/h
Gust
km/h
Spd
kts
Gust
kts
16/11:30pm 8.3 7.4 6.0 85 1.1 CALM 0 0 0 0 1025.7 - 0.0
16/11:20pm 8.3 7.4 6.2 87 1.0 CALM 0 2 0 1 1025.8 - 0.0
16/11:10pm 8.3 7.5 6.5 88 0.9 CALM 0 4 0 2 1025.9 - 0.0
16/11:00pm 8.3 7.5 6.3 87 1.0 CALM 0 4 0 2 1026.0 - 0.0
16/10:50pm 8.3 6.3 6.3 87 1.0 NNE 6 6 3 3 1025.9 - 0.0
16/10:40pm 8.4 6.5 6.5 88 0.9 N 6 7 3 4 1026.0 - 0.0
16/10:30pm 8.4 6.4 6.4 87 1.0 N 6 7 3 4 1026.0 - 0.0
16/10:20pm 8.5 6.3 6.4 87 1.0 NNE 7 9 4 5 1025.9 - 0.0
16/10:10pm 8.7 6.2 6.5 86 1.1 N 9 13 5 7 1026.0 - 0.0
16/10:00pm 8.9 6.4 6.6 85 1.1 NNE 9 11 5 6 1026.0 - 0.0
16/09:50pm 9.0 6.5 6.4 84 1.3 NE 9 11 5 6 1026.0 - 0.0
16/09:40pm 9.0 6.8 6.3 83 1.3 NE 7 9 4 5 1025.9 - 0.0
16/09:30pm 9.1 6.6 6.4 83 1.3 NE 9 11 5 6 1025.9 - 0.0
16/09:20pm 9.1 6.5 6.3 83 1.4 NE 9 11 5 6 1025.8 - 0.0
16/09:10pm 9.1 7.0 6.5 84 1.3 NE 7 9 4 5 1025.7 - 0.0
16/09:00pm 9.1 7.0 6.6 84 1.2 NNE 7 9 4 5 1025.6 - 0.0
16/08:50pm 9.2 7.1 6.8 85 1.2 NNE 7 7 4 4 1025.6 - 0.0
16/08:40pm 9.3 7.5 7.0 85 1.1 NNE 6 7 3 4 1025.6 - 0.0
16/08:30pm 9.4 7.9 6.9 84 1.2 NNE 4 4 2 2 1025.6 - 0.0
16/08:20pm 9.5 8.0 6.8 83 1.3 NE 4 6 2 3 1025.5 - 0.0
16/08:10pm 9.5 8.0 6.7 83 1.4 NE 4 7 2 4 1025.4 - 0.0
16/08:00pm 9.2 8.4 6.6 84 1.3 CALM 0 2 0 1 1025.3 - 0.0
16/07:50pm 9.2 8.4 6.7 84 1.2 CALM 0 0 0 0 1025.3 - 0.0
16/07:40pm 9.4 8.3 6.8 84 1.3 ESE 2 4 1 2 1025.2 - 0.0
16/07:30pm 9.8 8.3 6.9 82 1.4 N 4 9 2 5 1025.1 - 0.0
16/07:20pm 10.3 7.5 6.8 79 1.7 NNE 11 15 6 8 1024.9 - 0.0
16/07:10pm 11.0 7.0 6.8 75 2.1 NE 17 20 9 11 1024.7 - 0.0
16/07:00pm 11.5 7.1 6.5 71 2.5 ENE 19 22 10 12 1024.4 - 0.0
16/06:50pm 12.3 9.7 6.1 66 3.1 SE 9 22 5 12 1024.2 - 0.0
16/06:40pm 12.6 10.6 4.5 58 3.9 S 4 6 2 3 1024.0 - 0.0
16/06:30pm 12.5 10.2 4.7 59 3.8 S 6 6 3 3 1023.8 - 0.0
16/06:20pm 12.4 10.5 4.9 60 3.6 S 4 6 2 3 1023.6 - 0.0
16/06:10pm 12.3 10.0 4.9 60 3.6 S 6 6 3 3 1023.5 - 0.0
16/06:00pm 12.2 10.3 5.1 62 3.4 S 4 6 2 3 1023.3 - 0.0
16/05:50pm 12.2 10.3 5.1 62 3.4 S 4 6 2 3 1023.2 - 0.0
16/05:40pm 12.3 10.5 5.4 63 3.4 S 4 4 2 2 1023.1 - 0.0
16/05:10pm 13.5 12.3 6.4 62 3.6 W 2 4 1 2 1022.8 - 0.0
16/04:50pm 14.3 12.2 6.0 57 4.2 N 6 6 3 3 1022.8 - 0.0
16/04:30pm 15.7 13.0 5.5 50 5.1 N 9 11 5 6 1022.6 - 0.0
16/04:20pm 15.6 12.8 5.0 49 5.3 N 9 13 5 7 1022.6 - 0.0
16/04:10pm 16.6 14.3 5.5 48 5.6 NNW 7 9 4 5 1022.6 - 0.0
16/04:00pm 17.0 14.2 5.3 46 5.9 NNW 9 13 5 7 1022.5 - 0.0
16/03:40pm 16.8 13.3 5.4 47 5.7 NNE 13 17 7 9 1022.5 - 0.0
16/03:20pm 17.6 15.6 6.2 47 5.9 N 6 11 3 6 1022.3 - 0.0
16/03:10pm 17.6 14.9 5.4 44 6.2 N 9 13 5 7 1022.3 - 0.0
16/03:00pm 17.1 14.1 6.0 48 5.7 N 11 13 6 7 1022.3 - 0.0
16/02:50pm 16.3 13.1 5.2 47 5.6 NNE 11 15 6 8 1022.3 - 0.0
16/02:40pm 16.3 13.0 4.7 46 5.7 NE 11 17 6 9 1022.2 - 0.0
16/02:10pm 16.4 13.3 5.5 48 5.5 NNE 11 15 6 8 1022.2 - 0.0
16/02:00pm 16.0 13.1 4.8 47 5.5 NE 9 17 5 9 1022.2 - 0.0
16/01:50pm 17.1 14.0 5.5 46 5.9 N 11 17 6 9 1022.3 - 0.0
16/01:40pm 17.3 14.6 5.5 45 6.0 N 9 17 5 9 1022.3 - 0.0
16/01:30pm 17.5 14.9 6.0 46 5.9 N 9 13 5 7 1022.3 - 0.0
16/01:20pm 17.2 14.4 6.9 50 5.4 N 11 15 6 8 1022.3 - 0.0
16/01:10pm 16.7 13.6 5.5 47 5.7 NNE 11 17 6 9 1022.4 - 0.0
16/01:00pm 16.4 13.8 6.0 50 5.3 NNE 9 13 5 7 1022.4 - 0.0
16/12:50pm 16.4 13.2 5.0 47 5.7 NNE 11 17 6 9 1022.5 - 0.0
16/12:40pm 17.0 14.2 5.3 46 5.9 N 9 17 5 9 1022.6 - 0.0
16/12:30pm 16.8 14.6 6.0 49 5.5 N 7 15 4 8 1022.8 - 0.0
16/12:20pm 16.2 13.1 5.5 49 5.4 NNE 11 15 6 8 1022.9 - 0.0
16/12:10pm 16.4 13.8 5.9 50 5.3 N 9 13 5 7 1023.0 - 0.0
16/12:00pm 16.1 13.2 4.7 46 5.6 N 9 11 5 6 1023.1 - 0.0
16/11:50am 15.9 14.0 6.5 53 4.8 NW 6 7 3 4 1023.2 - 0.0
16/11:40am 15.6 13.1 5.0 49 5.3 NNE 7 13 4 7 1023.3 - 0.0
16/11:30am 15.1 11.8 4.6 49 5.1 NE 11 15 6 8 1023.4 - 0.0
16/11:20am 15.2 12.5 5.7 53 4.8 NE 9 15 5 8 1023.5 - 0.0
16/11:10am 15.3 13.1 6.3 55 4.6 NNE 7 13 4 7 1023.6 - 0.0
16/11:00am 15.1 12.4 5.5 52 4.8 N 9 15 5 8 1023.6 - 0.0
16/10:50am 15.4 13.2 6.2 54 4.7 N 7 11 4 6 1023.7 - 0.0
16/10:40am 14.6 12.2 7.1 60 3.9 NW 9 13 5 7 1023.7 - 0.0
16/10:30am 14.4 12.3 5.7 56 4.3 NNW 6 9 3 5 1023.6 - 0.0
16/10:20am 14.7 12.2 5.0 52 4.8 N 7 13 4 7 1023.6 - 0.0
16/10:10am 14.1 12.0 5.6 56 4.2 ENE 6 11 3 6 1023.7 - 0.0
16/10:00am 13.1 10.6 4.8 57 4.0 E 7 13 4 7 1023.7 - 0.0
16/09:50am 12.9 10.7 5.3 60 3.7 ESE 6 11 3 6 1023.7 - 0.0
16/09:40am 12.2 10.0 5.2 62 3.4 ESE 6 13 3 7 1023.7 - 0.0
16/09:30am 11.7 9.8 4.8 62 3.3 ESE 4 7 2 4 1023.7 - 0.0
16/09:20am 10.6 6.9 4.6 66 2.8 ESE 13 17 7 9 1023.7 - 0.0
16/09:10am 11.2 7.6 4.8 64 3.1 ENE 13 19 7 10 1023.6 - 0.0
16/09:00am 11.4 8.7 5.7 68 2.8 NNE 9 17 5 9 1023.5 - 0.0
16/08:50am 11.0 8.2 5.2 67 2.8 N 9 19 5 10 1023.4 - 0.0
16/08:40am 10.4 8.2 5.1 69 2.5 NNE 6 9 3 5 1023.3 - 0.0
16/08:30am 10.1 8.4 5.7 74 2.1 N 4 6 2 3 1023.1 - 0.0
16/08:20am 10.1 8.7 5.3 72 2.3 - 2 6 1 3 1022.9 - 0.0
16/08:10am 9.6 7.0 3.2 64 2.9 NE 6 9 3 5 1022.8 - 0.0
16/08:00am 8.9 7.2 4.2 72 2.2 NE 2 6 1 3 1022.6 - 0.0
16/07:50am 8.2 6.5 4.0 75 1.9 NNE 2 4 1 2 1022.6 - 0.0
16/07:40am 8.0 6.3 4.1 76 1.8 W 2 6 1 3 1022.4 - 0.0
16/07:30am 8.3 6.6 3.8 73 2.1 SSW 2 4 1 2 1022.2 - 0.0
16/07:20am 8.9 6.7 3.5 69 2.5 NW 4 6 2 3 1022.1 - 0.0
16/07:10am 8.4 6.0 2.4 66 2.7 SSE 4 9 2 5 1021.8 - 0.0
16/07:00am 6.8 4.8 2.5 74 1.9 E 2 4 1 2 1021.6 - 0.0
16/06:50am 6.8 5.3 3.0 77 1.7 CALM 0 2 0 1 1021.5 - 0.0
16/06:40am 7.7 5.5 3.1 72 2.1 SW 4 6 2 3 1021.4 - 0.0
16/06:30am 7.3 4.5 1.9 68 2.3 SE 6 7 3 4 1021.3 - 0.0
16/06:20am 7.1 5.2 2.8 74 1.9 NNE 2 6 1 3 1021.2 - 0.0
16/06:10am 8.0 5.7 2.9 70 2.3 NNE 4 4 2 2 1021.0 - 0.0
16/06:00am 8.7 6.0 2.5 65 2.8 NNE 6 7 3 4 1020.8 - 0.0
16/05:50am 8.8 6.0 2.3 64 2.9 NE 6 7 3 4 1020.6 - 0.0
16/05:40am 8.1 5.2 2.6 68 2.4 ENE 7 9 4 5 1020.7 - 0.0
16/05:30am 7.8 5.8 2.5 69 2.3 ENE 2 7 1 4 1020.6 - 0.0
16/05:20am 8.1 5.8 2.8 69 2.4 NNW 4 6 2 3 1020.6 - 0.0
16/05:10am 8.1 5.8 2.8 69 2.4 WSW 4 6 2 3 1020.5 - 0.0
16/05:00am 9.2 6.4 3.3 66 2.7 SSW 7 11 4 6 1020.2 - 0.0
16/04:50am 9.0 7.1 2.7 64 2.8 S 2 7 1 4 1020.0 - 0.0
16/04:40am 9.2 6.5 2.6 63 3.0 SSE 6 7 3 4 1019.9 - 0.0
16/04:30am 9.4 7.1 2.8 63 3.0 S 4 6 2 3 1020.1 - 0.0
16/04:20am 9.5 6.8 2.7 62 3.1 S 6 7 3 4 1020.2 - 0.0
16/04:10am 9.4 7.5 2.9 64 2.9 SSW 2 4 1 2 1020.2 - 0.0
16/04:00am 9.4 6.6 3.1 65 2.9 SSE 7 13 4 7 1019.9 - 0.0
16/03:50am 9.0 7.0 2.5 64 2.9 E 2 6 1 3 1019.9 - 0.0
16/03:40am 8.8 6.5 2.5 64 2.8 E 4 7 2 4 1019.7 - 0.0
16/03:30am 8.2 5.9 2.8 69 2.4 SSE 4 6 2 3 1019.7 - 0.0
16/03:20am 8.3 5.9 2.3 66 2.6 NNE 4 7 2 4 1019.7 - 0.0
16/03:10am 8.2 5.9 2.8 69 2.4 N 4 7 2 4 1019.6 - 0.0
16/03:00am 8.6 5.9 2.8 67 2.6 NE 6 9 3 5 1019.5 - 0.0
16/02:50am 8.9 6.5 2.3 63 2.9 ENE 4 9 2 5 1019.4 - 0.0
16/02:40am 8.9 5.9 2.2 63 3.0 ENE 7 9 4 5 1019.4 - 0.0
16/02:30am 8.5 5.5 2.1 64 2.8 NE 7 9 4 5 1019.4 - 0.0
16/02:20am 8.0 6.0 2.2 67 2.5 N 2 4 1 2 1019.5 - 0.0
16/02:10am 8.3 5.9 2.4 66 2.6 N 4 7 2 4 1019.5 - 0.0
16/02:00am 8.6 6.6 2.1 63 2.9 SSE 2 6 1 3 1019.4 - 0.0
16/01:50am 8.5 5.7 2.1 64 2.8 SE 6 9 3 5 1019.6 - 0.0
16/01:40am 8.5 6.2 2.5 66 2.7 E 4 7 2 4 1019.8 - 0.0
16/01:30am 9.0 6.6 2.3 63 3.0 S 4 6 2 3 1019.9 - 0.0
16/01:20am 9.5 7.1 2.1 60 3.3 WNW 4 6 2 3 1019.9 - 0.0
16/01:10am 9.4 7.3 1.9 59 3.3 NE 2 6 1 3 1019.6 - 0.0
16/01:00am 8.7 6.2 1.6 61 3.1 SSE 4 6 2 3 1019.7 - 0.0
16/12:50am 8.3 6.3 2.2 65 2.7 S 2 6 1 3 1019.8 - 0.0
16/12:40am 8.4 6.0 2.1 64 2.8 S 4 6 2 3 1019.7 - 0.0
16/12:30am 8.6 6.6 2.3 64 2.8 WSW 2 4 1 2 1019.8 - 0.0
16/12:20am 8.5 6.1 2.0 63 2.9 SSE 4 6 2 3 1019.8 - 0.0
16/12:10am 8.6 7.0 2.3 64 2.8 CALM 0 2 0 1 1019.8 - 0.0
16/12:00am 8.7 7.1 2.3 64 2.8 CALM 0 0 0 0 1019.7 - 0.0
 
Date/Time
EST
Temp
°C
App
Temp
°C
Dew
Point
°C
Rel
Hum
%
Delta-T
°C
Wind Press
QNH
hPa
Press
MSL
hPa
Rain since
9am
mm
Dir  Spd
km/h
Gust
km/h
Spd
kts
Gust
kts
15/11:50pm 8.8 7.2 2.2 63 2.9 CALM 0 4 0 2 1019.6 - 0.0
15/11:40pm 9.0 6.6 2.3 63 3.0 W 4 6 2 3 1019.7 - 0.0
15/11:30pm 8.8 5.5 2.3 64 2.9 SE 9 13 5 7 1019.7 - 0.0
15/11:20pm 8.9 6.0 2.4 64 2.9 SSE 7 13 4 7 1019.5 - 0.0
15/11:10pm 9.0 7.0 2.3 63 3.0 SE 2 4 1 2 1019.7 - 0.0
15/11:00pm 9.0 6.7 2.5 64 2.9 S 4 7 2 4 1019.7 - 0.0
15/10:50pm 9.1 6.4 2.6 64 2.9 S 6 7 3 4 1019.7 - 0.0
15/10:40pm 9.5 6.2 2.7 62 3.1 SSW 9 11 5 6 1019.8 - 0.0
15/10:30pm 9.6 5.5 2.4 61 3.2 SSW 13 17 7 9 1019.7 - 0.0
15/10:20pm 9.3 5.6 2.5 62 3.0 SSW 11 17 6 9 1019.5 - 0.0
15/10:10pm 9.2 6.3 2.5 63 3.0 SSE 7 9 4 5 1019.4 - 0.0
15/10:00pm 9.3 6.4 2.7 63 3.0 SSE 7 9 4 5 1019.5 - 0.0
15/09:50pm 9.4 5.8 2.7 63 3.0 S 11 13 6 7 1019.3 - 0.0
15/09:40pm 9.4 6.5 2.6 62 3.0 S 7 9 4 5 1019.3 - 0.0
15/09:30pm 9.4 6.5 2.7 63 3.0 S 7 11 4 6 1019.2 - 0.0
15/09:20pm 9.6 7.3 3.0 63 3.0 S 4 7 2 4 1019.3 - 0.0
15/09:10pm 9.9 8.0 3.1 62 3.1 SSW 2 4 1 2 1019.2 - 0.0
15/09:00pm 10.0 7.4 3.0 62 3.2 SW 6 7 3 4 1019.1 - 0.0
15/08:50pm 10.1 7.9 3.3 62 3.1 WNW 4 6 2 3 1019.0 - 0.0
15/08:40pm 9.8 8.0 3.4 64 2.9 NNW 2 6 1 3 1018.7 - 0.0
15/08:30pm 10.1 7.9 3.6 64 3.0 NW 4 6 2 3 1018.7 - 0.0
15/08:20pm 10.4 8.3 3.7 63 3.1 NE 4 6 2 3 1018.6 - 0.0
15/08:10pm 10.3 8.1 3.5 62 3.1 SW 4 6 2 3 1018.4 - 0.0
15/08:00pm 10.5 8.4 3.9 63 3.1 N 4 7 2 4 1018.3 - 0.0
15/07:50pm 10.7 8.2 3.8 62 3.2 ENE 6 7 3 4 1018.1 - 0.0
15/07:40pm 11.0 8.5 3.7 60 3.4 NNE 6 7 3 4 1017.9 - 0.0
15/07:30pm 11.0 8.8 3.6 60 3.4 NNE 4 7 2 4 1017.9 - 0.0
15/07:20pm 11.0 8.9 3.9 61 3.3 SSW 4 7 2 4 1017.9 - 0.0
15/07:10pm 11.1 8.6 3.8 61 3.4 SW 6 11 3 6 1017.7 - 0.0
15/07:00pm 11.3 9.2 3.9 60 3.5 WSW 4 7 2 4 1017.6 - 0.0
15/06:50pm 11.6 8.5 3.7 58 3.7 WSW 9 15 5 8 1017.5 - 0.0
15/06:40pm 11.7 8.2 3.7 58 3.7 WSW 11 17 6 9 1017.3 - 0.0
15/06:30pm 11.9 8.4 3.6 57 3.9 WSW 11 15 6 8 1017.2 - 0.0
15/06:20pm 12.0 8.1 3.5 56 4.0 WSW 13 20 7 11 1016.9 - 0.0
15/06:10pm 12.2 8.4 3.7 56 4.0 SW 13 19 7 10 1016.8 - 0.0
15/05:50pm 12.6 8.4 3.6 54 4.2 WSW 15 20 8 11 1016.7 - 0.0
15/05:40pm 12.8 9.4 3.8 54 4.3 WSW 11 19 6 10 1016.5 - 0.0
15/05:30pm 13.1 8.8 3.5 52 4.5 WSW 15 20 8 11 1016.4 - 0.0
15/05:20pm 13.3 9.4 3.6 52 4.6 WSW 13 19 7 10 1016.3 - 0.0
15/05:10pm 13.9 9.8 4.2 52 4.7 WSW 15 20 8 11 1016.1 - 0.0
15/05:00pm 15.2 11.0 3.9 47 5.5 WSW 15 19 8 10 1015.9 - 0.0
15/04:50pm 15.8 11.6 3.6 44 5.9 WSW 15 22 8 12 1015.7 - 0.0
15/04:40pm 16.0 11.4 3.6 43 6.0 WSW 17 22 9 12 1015.7 - 0.0
15/04:30pm 16.4 12.9 3.6 42 6.2 WSW 11 17 6 9 1015.6 - 0.0
15/04:20pm 16.3 11.7 3.5 42 6.2 WSW 17 22 9 12 1015.7 - 0.0
15/04:10pm 16.1 11.9 3.8 44 6.0 WSW 15 20 8 11 1015.6 - 0.0
15/04:00pm 16.7 11.8 4.1 43 6.2 WSW 19 22 10 12 1015.4 - 0.0
15/03:50pm 17.0 13.3 4.3 43 6.3 WSW 13 19 7 10 1015.4 - 0.0
15/03:40pm 17.1 12.5 3.9 41 6.5 WSW 17 20 9 11 1015.3 - 0.0
15/03:30pm 17.1 12.0 3.2 39 6.7 WSW 19 26 10 14 1015.1 - 0.0
15/03:20pm 17.2 12.5 3.3 39 6.7 WSW 17 20 9 11 1015.3 - 0.0
15/03:10pm 17.0 12.1 4.1 42 6.3 WSW 19 22 10 12 1015.3 - 0.0
15/03:00pm 17.1 11.9 2.4 37 7.0 WSW 19 24 10 13 1015.2 - 0.0
15/02:50pm 17.2 12.0 2.4 37 7.0 WSW 19 30 10 16 1015.2 - 0.0
15/02:40pm 17.2 12.4 2.4 37 7.0 WSW 17 22 9 12 1015.3 - 0.0
15/02:30pm 17.1 12.4 3.1 39 6.8 WSW 17 20 9 11 1015.3 - 0.0
15/02:20pm 17.0 11.7 2.9 39 6.8 WSW 20 28 11 15 1015.1 - 0.0
15/02:10pm 17.2 11.5 2.8 38 6.9 WSW 22 26 12 14 1015.2 - 0.0
15/02:00pm 17.1 11.5 3.2 39 6.7 WSW 22 26 12 14 1015.2 - 0.0
15/01:50pm 17.4 12.1 3.1 38 6.9 WSW 20 26 11 14 1015.0 - 0.0
15/01:40pm 17.5 12.3 2.7 37 7.1 WSW 19 26 10 14 1015.2 - 0.0
15/01:30pm 17.2 11.6 3.3 39 6.7 WSW 22 28 12 15 1015.3 - 0.0
15/01:20pm 17.1 11.8 2.9 38 6.8 WSW 20 30 11 16 1015.4 - 0.0
15/01:10pm 16.9 11.5 2.5 38 6.9 WSW 20 26 11 14 1015.5 - 0.0
15/01:00pm 17.1 11.9 2.5 37 7.0 W 19 26 10 14 1015.7 - 0.0
15/12:50pm 17.1 12.3 2.6 38 6.9 W 17 26 9 14 1015.9 - 0.0
15/12:40pm 17.2 12.4 2.6 37 7.0 W 17 24 9 13 1016.1 - 0.0
15/12:30pm 17.3 12.8 2.4 37 7.1 W 15 22 8 12 1016.3 - 0.0
15/12:20pm 17.1 12.4 3.2 39 6.7 W 17 22 9 12 1016.4 - 0.0
15/12:10pm 17.2 13.1 2.5 37 7.0 W 13 20 7 11 1016.5 - 0.0
15/12:00pm 17.0 12.6 2.8 38 6.8 W 15 20 8 11 1016.6 - 0.0
15/11:50am 17.2 13.8 4.1 41 6.5 WSW 11 17 6 9 1016.8 - 0.0
15/11:40am 16.7 12.8 3.5 41 6.4 W 13 22 7 12 1016.9 - 0.0
15/11:30am 16.5 12.6 3.6 42 6.3 WSW 13 17 7 9 1017.0 - 0.0
15/11:10am 16.4 13.3 3.6 42 6.2 W 9 17 5 9 1017.1 - 0.0
15/11:00am 16.1 13.3 3.3 42 6.2 W 7 15 4 8 1017.3 - 0.0
15/10:50am 15.4 12.2 2.8 42 6.0 W 9 13 5 7 1017.4 - 0.0
15/10:40am 14.9 12.2 2.9 44 5.7 W 6 7 3 4 1017.6 - 0.0
15/10:30am 14.1 10.9 3.0 47 5.2 WSW 9 13 5 7 1017.5 - 0.0
15/10:20am 14.2 11.5 3.5 48 5.1 W 7 13 4 7 1017.6 - 0.0
15/10:10am 14.0 10.0 2.9 47 5.2 WSW 13 22 7 12 1017.7 - 0.0
15/10:00am 13.5 8.4 3.0 49 4.9 SW 19 24 10 13 1017.7 - 0.0
15/09:50am 12.9 7.4 1.6 46 5.1 SW 20 28 11 15 1017.7 - 0.0
15/09:40am 12.5 6.3 2.0 48 4.8 SW 24 26 13 14 1017.6 - 0.0
15/09:30am 12.9 7.6 2.8 50 4.7 SW 20 24 11 13 1017.8 - 0.0
15/09:20am 13.8 7.3 2.6 46 5.2 SW 26 32 14 17 1017.6 - 0.0
15/09:10am 13.5 8.1 2.6 47 5.1 SW 20 28 11 15 1017.6 - 0.0
15/09:00am 12.6 7.2 2.6 50 4.6 SW 20 24 11 13 1017.8 - 0.0
15/08:50am 12.2 6.5 2.7 52 4.4 SW 22 30 12 16 1017.6 - 0.0
15/08:40am 12.4 7.1 3.2 53 4.3 SW 20 24 11 13 1017.9 - 0.0
15/08:30am 12.0 6.2 2.4 52 4.4 SW 22 30 12 16 1017.8 - 0.0
15/08:20am 11.9 6.8 3.3 55 4.0 SW 19 24 10 13 1017.9 - 0.0
15/08:10am 11.6 5.1 2.5 53 4.1 SW 26 32 14 17 1017.9 - 0.0
15/08:00am 11.4 6.3 2.8 55 3.9 SW 19 20 10 11 1017.9 - 0.0
15/07:50am 11.3 6.1 2.6 55 4.0 SW 19 26 10 14 1017.9 - 0.0
15/07:40am 11.0 6.2 2.4 55 3.9 SW 17 22 9 12 1017.6 - 0.0
15/07:30am 11.2 7.2 2.8 56 3.8 SW 13 28 7 15 1017.7 - 0.0
15/07:20am 11.4 8.5 2.8 55 3.9 SW 7 17 4 9 1017.8 - 0.0
15/07:10am 11.1 9.1 2.3 54 4.0 W 2 6 1 3 1017.5 - 0.0
15/07:00am 10.6 8.9 1.9 55 3.9 CALM 0 2 0 1 1017.4 - 0.0
15/06:50am 10.4 7.4 2.1 56 3.7 SSW 7 11 4 6 1017.2 - 0.0
15/06:40am 10.1 6.7 1.9 57 3.6 SSW 9 11 5 6 1017.2 - 0.0
15/06:30am 10.0 7.6 2.0 57 3.6 SSW 4 9 2 5 1017.1 - 0.0
15/06:20am 10.1 7.1 1.8 56 3.7 S 7 9 4 5 1017.0 - 0.0
15/06:10am 10.2 7.2 2.1 57 3.6 SW 7 9 4 5 1017.0 - 0.0
15/06:00am 10.1 7.6 1.5 55 3.8 SSW 4 6 2 3 1017.0 - 0.0
15/05:50am 10.1 8.0 1.6 55 3.7 S 2 4 1 2 1017.0 - 0.0
15/05:40am 10.2 7.7 1.7 55 3.8 SSE 4 6 2 3 1017.0 - 0.0
15/05:30am 10.4 7.4 1.7 55 3.9 SSW 7 11 4 6 1016.9 - 0.0
15/05:20am 10.2 7.1 1.4 54 3.9 S 7 9 4 5 1016.8 - 0.0
15/05:10am 10.4 7.9 1.6 54 3.9 SSW 4 7 2 4 1016.8 - 0.0
15/05:00am 10.3 7.3 1.7 55 3.8 SSW 7 9 4 5 1016.8 - 0.0
15/04:50am 10.4 6.2 1.7 55 3.9 SW 13 17 7 9 1016.7 - 0.0
15/04:40am 10.4 6.2 1.5 54 3.9 SW 13 17 7 9 1016.6 - 0.0
15/04:30am 10.7 7.3 1.9 54 3.9 SW 9 13 5 7 1016.7 - 0.0
15/04:20am 11.2 6.7 2.0 53 4.1 SW 15 20 8 11 1016.6 - 0.0
15/04:10am 11.2 6.6 1.6 51 4.3 SW 15 22 8 12 1016.5 - 0.0
15/04:00am 11.3 6.3 1.5 51 4.4 SW 17 24 9 13 1016.4 - 0.0
15/03:50am 11.1 6.5 1.8 52 4.2 SW 15 24 8 13 1016.4 - 0.0
15/03:40am 11.1 6.6 2.1 54 4.0 SW 15 22 8 12 1016.4 - 0.0
15/03:30am 11.2 7.8 2.1 53 4.1 SW 9 15 5 8 1016.4 - 0.0
15/03:20am 11.1 7.4 2.6 56 3.9 SW 11 15 6 8 1016.4 - 0.0
15/03:10am 11.4 7.3 2.5 54 4.1 SSW 13 22 7 12 1016.4 - 0.0
15/03:00am 11.7 6.0 2.7 54 4.1 SW 22 30 12 16 1016.4 - 0.0
15/02:50am 11.6 5.8 2.4 53 4.2 SW 22 30 12 16 1016.3 - 0.0
15/02:40am 11.5 6.8 3.0 56 3.9 SW 17 20 9 11 1016.5 - 0.0
15/02:30am 11.5 7.2 3.0 56 3.9 SSW 15 24 8 13 1016.5 - 0.0
15/02:20am 11.3 7.4 3.5 58 3.6 SW 13 19 7 10 1016.6 - 0.0
15/02:10am 11.6 8.9 3.6 58 3.7 SSW 7 13 4 7 1016.6 - 0.0
15/02:00am 11.9 8.3 3.2 55 4.0 SW 11 24 6 13 1016.8 - 0.0
15/01:50am 11.9 7.2 3.2 55 4.0 SW 17 22 9 12 1016.8 - 0.0
15/01:40am 12.0 6.7 3.0 54 4.2 SSW 20 28 11 15 1016.6 - 0.0
15/01:30am 11.7 7.8 3.4 56 3.9 SSW 13 20 7 11 1016.7 - 0.0
15/01:20am 11.7 7.9 3.7 58 3.7 SW 13 19 7 10 1016.9 - 0.0
15/01:10am 11.6 8.5 3.7 58 3.7 SW 9 20 5 11 1016.8 - 0.0
15/01:00am 11.8 8.0 3.7 57 3.8 SW 13 19 7 10 1016.9 - 0.0
15/12:50am 11.9 7.3 3.5 56 3.9 SSW 17 24 9 13 1016.9 - 0.0
15/12:40am 11.4 8.3 3.4 58 3.7 SSW 9 11 5 6 1017.0 - 0.0
15/12:30am 11.7 8.7 3.9 59 3.7 SW 9 15 5 8 1017.1 - 0.0
15/12:20am 12.0 7.8 3.7 57 3.9 SW 15 20 8 11 1017.1 - 0.0
15/12:10am 11.9 8.4 3.5 56 3.9 SW 11 15 6 8 1017.2 - 0.0
15/12:00am 12.0 8.8 3.3 55 4.1 SW 9 15 5 8 1017.2 - 0.0
 
Date/Time
EST
Temp
°C
App
Temp
°C
Dew
Point
°C
Rel
Hum
%
Delta-T
°C
Wind Press
QNH
hPa
Press
MSL
hPa
Rain since
9am
mm
Dir  Spd
km/h
Gust
km/h
Spd
kts
Gust
kts
14/11:50pm 12.1 8.5 3.2 54 4.1 SSW 11 15 6 8 1017.3 - 0.0
14/11:40pm 12.3 8.3 2.9 52 4.3 SW 13 20 7 11 1017.3 - 0.0
14/11:30pm 12.0 9.3 2.8 53 4.2 SW 6 11 3 6 1017.4 - 0.0
14/11:20pm 12.0 9.1 2.8 53 4.2 ENE 7 11 4 6 1017.3 - 0.0
14/11:10pm 12.0 9.7 2.6 52 4.3 NNW 4 7 2 4 1017.5 - 0.0
14/11:00pm 11.9 9.0 2.5 52 4.3 SSW 7 17 4 9 1017.5 - 0.0
14/10:50pm 12.1 8.0 2.4 51 4.4 SSW 13 19 7 10 1017.6 - 0.0
14/10:40pm 12.1 9.1 2.3 51 4.5 S 7 11 4 6 1017.6 - 0.0
14/10:30pm 12.3 6.9 2.5 51 4.5 SSW 20 24 11 13 1017.5 - 0.0
14/10:20pm 12.1 8.4 2.3 51 4.5 SSE 11 22 6 12 1017.7 - 0.0
14/10:10pm 12.3 8.3 2.7 52 4.4 S 13 20 7 11 1017.7 - 0.0
14/10:00pm 12.5 6.5 3.4 54 4.3 SSW 24 35 13 19 1017.5 - 0.0
14/09:50pm 12.7 4.3 3.6 54 4.3 SW 37 46 20 25 1016.7 - 0.0
14/09:40pm 12.8 3.7 3.9 54 4.2 SW 41 48 22 26 1016.6 - 0.0
14/09:30pm 12.4 5.4 3.9 56 4.0 SW 30 35 16 19 1016.6 - 0.0
14/09:20pm 12.5 6.0 4.9 60 3.7 SW 28 39 15 21 1016.7 - 0.0
14/09:10pm 12.5 6.1 5.2 61 3.6 SW 28 33 15 18 1016.7 - 0.0
14/09:00pm 12.5 5.8 5.6 63 3.4 SW 30 39 16 21 1016.9 - 0.0
14/08:40pm 12.2 7.6 5.4 63 3.3 SW 19 20 10 11 1017.2 - 0.0
14/08:30pm 12.3 7.6 5.2 62 3.5 SW 19 24 10 13 1017.3 - 0.0
14/08:20pm 12.1 7.7 4.9 61 3.5 SW 17 20 9 11 1017.3 - 0.0
14/08:10pm 12.1 8.4 4.7 60 3.6 SW 13 13 7 7 1017.3 - 0.0
14/08:00pm 12.2 8.1 4.4 59 3.7 SW 15 19 8 10 1017.4 - 0.0
14/07:50pm 12.4 8.3 4.3 57 3.9 SW 15 19 8 10 1017.4 - 0.0
14/07:40pm 12.5 9.2 4.3 57 3.9 SW 11 17 6 9 1017.3 - 0.0
14/07:30pm 12.6 9.2 4.0 56 4.1 SW 11 17 6 9 1017.3 - 0.0
14/07:20pm 13.0 9.5 3.7 53 4.4 SSW 11 15 6 8 1017.3 - 0.0
14/07:10pm 13.4 9.5 3.6 51 4.6 SSW 13 19 7 10 1017.2 - 0.0
14/07:00pm 13.5 9.6 3.2 49 4.8 SSW 13 19 7 10 1017.1 - 0.0
14/06:40pm 13.4 10.1 2.7 48 5.0 SSW 9 17 5 9 1017.0 - 0.0
14/06:30pm 13.8 10.9 2.8 47 5.1 WSW 7 13 4 7 1016.8 - 0.0
14/06:20pm 13.8 11.0 2.9 47 5.1 SW 7 15 4 8 1016.6 - 0.0
14/06:10pm 13.8 9.7 2.5 46 5.2 WSW 13 20 7 11 1016.5 - 0.0
14/06:00pm 13.2 10.4 2.9 49 4.8 WSW 7 11 4 6 1016.4 - 0.0
14/05:50pm 13.6 10.4 3.1 49 4.9 SW 9 15 5 8 1016.3 - 0.0
14/05:40pm 14.0 10.8 3.3 48 5.1 W 9 17 5 9 1016.1 - 0.0
14/05:30pm 13.9 10.3 3.1 48 5.1 W 11 13 6 7 1016.0 - 0.0
14/05:20pm 14.0 10.9 3.8 50 4.9 W 9 13 5 7 1016.0 - 0.0
14/05:10pm 14.0 11.3 3.9 50 4.8 WSW 7 11 4 6 1015.9 - 0.0
14/05:00pm 14.3 11.7 4.0 50 5.0 SW 7 15 4 8 1015.8 - 0.0
14/04:50pm 15.2 12.1 3.5 45 5.6 WNW 9 20 5 11 1015.6 - 0.0
14/04:40pm 16.4 13.4 4.3 44 5.9 W 9 13 5 7 1015.5 - 0.0
14/04:30pm 16.7 14.2 5.0 46 5.8 WSW 7 11 4 6 1015.6 - 0.0
14/04:20pm 16.4 12.7 4.6 45 5.8 SW 13 19 7 10 1015.6 - 0.0
14/04:10pm 15.9 11.7 3.9 44 5.8 SW 15 20 8 11 1015.5 - 0.0
14/03:50pm 16.2 11.8 4.6 46 5.7 WSW 17 22 9 12 1015.6 - 0.0
14/03:40pm 16.1 11.9 4.0 44 5.9 WSW 15 24 8 13 1015.7 - 0.0
14/03:30pm 15.8 10.7 4.1 45 5.7 SW 20 26 11 14 1015.4 - 0.0
14/03:20pm 15.7 10.6 3.1 43 6.0 WSW 19 26 10 14 1015.6 - 0.0
14/03:10pm 16.2 12.8 4.2 45 5.9 W 11 15 6 8 1015.3 - 0.0
14/03:00pm 16.1 12.3 3.8 44 6.0 W 13 19 7 10 1015.3 - 0.0
14/02:50pm 17.6 13.7 5.2 44 6.3 WNW 15 22 8 12 1015.3 - 0.0
14/02:40pm 17.6 13.6 4.8 42 6.4 WNW 15 20 8 11 1015.2 - 0.0
14/02:30pm 17.1 12.5 3.7 41 6.5 WNW 17 20 9 11 1015.3 - 0.0
14/02:20pm 17.2 13.6 3.1 39 6.8 W 11 22 6 12 1015.2 - 0.0
14/02:00pm 17.5 13.4 2.2 36 7.3 WNW 13 17 7 9 1014.9 - 0.0
14/01:50pm 17.6 12.9 3.4 38 6.9 WNW 17 20 9 11 1015.1 - 0.0
14/01:40pm 17.6 12.5 3.3 38 7.0 WNW 19 26 10 14 1015.0 - 0.0
14/01:30pm 17.8 14.8 4.2 40 6.7 W 9 15 5 8 1015.1 - 0.0
14/01:20pm 17.6 13.8 4.0 40 6.7 WSW 13 19 7 10 1015.1 - 0.0
14/01:10pm 17.7 14.4 4.7 42 6.5 SW 11 19 6 10 1015.3 - 0.0
14/01:00pm 17.3 13.0 3.2 39 6.8 W 15 22 8 12 1015.4 - 0.0
14/12:50pm 16.5 11.0 2.0 37 6.8 SW 20 32 11 17 1015.4 - 0.0
14/12:40pm 16.1 11.1 3.5 43 6.1 SW 19 22 10 12 1015.7 - 0.0
14/12:30pm 16.2 11.4 2.6 40 6.4 SW 17 19 9 10 1015.9 - 0.0
14/12:20pm 15.5 9.3 2.4 41 6.2 SW 24 33 13 18 1016.0 - 0.0
14/12:10pm 15.0 8.4 1.9 41 6.1 SW 26 39 14 21 1016.0 - 0.0
14/12:00pm 15.2 7.4 2.7 43 5.9 SW 33 41 18 22 1016.2 - 0.0
14/11:30am 16.0 8.5 1.5 37 6.7 SW 30 39 16 21 1016.6 - 0.0
14/11:20am 16.4 8.5 2.1 38 6.7 SW 33 50 18 27 1016.3 - 0.0
14/11:10am 16.8 10.1 1.7 36 7.1 SW 26 33 14 18 1016.6 - 0.0
14/10:50am 16.9 10.9 1.1 34 7.3 WSW 22 33 12 18 1016.6 - 0.0
14/10:40am 17.0 8.9 1.0 34 7.4 SW 33 41 18 22 1016.5 - 0.0
14/10:30am 16.6 9.8 0.8 34 7.2 SW 26 37 14 20 1016.3 - 0.0
14/10:20am 15.6 7.4 0.6 36 6.8 SW 33 44 18 24 1016.3 - 0.0
14/10:10am 15.9 9.6 1.4 37 6.7 SW 24 43 13 23 1016.4 - 0.0
14/10:00am 15.0 7.8 0.7 37 6.5 SW 28 39 15 21 1016.5 - 0.0
14/09:50am 14.9 8.9 0.9 38 6.3 WSW 22 28 12 15 1016.5 - 0.0
14/09:30am 14.6 8.2 1.2 40 6.1 SW 24 33 13 18 1016.6 - 0.0
14/09:20am 14.9 6.8 0.7 38 6.4 WSW 33 44 18 24 1016.6 - 0.0
14/09:10am 15.5 5.8 0.5 36 6.8 WSW 41 52 22 28 1016.6 - 0.0
14/09:00am 15.6 7.4 0.3 35 6.9 WSW 33 48 18 26 1016.2 - 0.0
14/08:50am 15.5 5.7 0.0 34 6.9 WSW 41 56 22 30 1015.9 - 0.0
14/08:40am 15.3 6.4 0.6 36 6.6 WSW 37 46 20 25 1015.8 - 0.0
14/08:30am 15.1 5.3 0.1 36 6.7 SW 41 48 22 26 1015.6 - 0.0
14/07:30am 13.9 5.8 -0.1 38 6.2 WSW 32 41 17 22 1015.5 - 0.0
14/07:20am 13.7 6.8 0.4 40 5.9 WSW 26 37 14 20 1015.4 - 0.0
14/07:10am 13.4 6.1 0.3 40 5.8 WSW 28 33 15 18 1015.4 - 0.0
14/07:00am 13.4 6.1 0.2 40 5.8 WSW 28 39 15 21 1015.3 - 0.0
14/06:50am 13.3 6.8 0.1 40 5.8 WSW 24 35 13 19 1015.3 - 0.0
14/06:40am 13.3 7.2 0.2 40 5.8 WSW 22 28 12 15 1015.6 - 0.0
14/06:30am 13.3 7.7 0.0 40 5.8 WSW 19 30 10 16 1015.8 - 0.0
14/06:20am 13.3 7.6 0.4 41 5.7 WSW 20 28 11 15 1015.8 - 0.0
14/06:10am 13.2 7.6 0.1 40 5.7 WSW 19 24 10 13 1015.9 - 0.0
14/06:00am 13.0 8.1 -0.2 40 5.7 W 15 28 8 15 1016.0 - 0.0
14/05:50am 13.2 7.0 -0.2 39 5.8 WSW 22 32 12 17 1015.9 - 0.0
14/05:40am 13.1 6.2 0.0 40 5.7 W 26 37 14 20 1016.1 - 0.0
14/05:30am 13.0 7.2 0.2 41 5.6 WSW 20 32 11 17 1016.1 - 0.0
14/05:20am 13.1 6.9 -0.2 40 5.8 WSW 22 32 12 17 1015.9 - 0.0
14/05:10am 13.1 6.5 -0.2 40 5.8 WSW 24 33 13 18 1016.1 - 0.0
14/05:00am 12.9 5.9 -0.3 40 5.7 WSW 26 33 14 18 1016.1 - 0.0
14/04:50am 12.7 6.1 -0.3 40 5.6 WSW 24 30 13 16 1016.1 - 0.0
14/04:40am 12.8 7.3 0.3 42 5.5 WSW 19 24 10 13 1016.3 - 0.0
14/04:30am 12.8 7.2 -0.1 41 5.6 W 19 28 10 15 1016.3 - 0.0
14/04:20am 12.9 7.3 0.2 41 5.6 WSW 19 35 10 19 1016.3 - 0.0
14/04:10am 12.8 7.6 0.1 41 5.6 WSW 17 28 9 15 1016.4 - 0.0
14/04:00am 12.9 7.4 0.3 42 5.5 W 19 28 10 15 1016.4 - 0.0
14/03:50am 12.8 8.8 0.4 42 5.5 W 11 19 6 10 1016.5 - 0.0
14/03:40am 13.0 8.2 0.1 41 5.6 WSW 15 20 8 11 1016.6 - 0.0
14/03:30am 13.0 7.8 0.2 41 5.6 WSW 17 24 9 13 1016.8 - 0.0
14/03:20am 13.2 9.2 0.6 42 5.6 WSW 11 17 6 9 1016.7 - 0.0
14/03:10am 13.4 9.0 0.1 40 5.8 W 13 19 7 10 1016.6 - 0.0
14/03:00am 13.4 8.6 0.0 40 5.9 WSW 15 24 8 13 1016.7 - 0.0
14/02:50am 13.3 9.3 0.4 41 5.7 WSW 11 17 6 9 1017.0 - 0.0
14/02:40am 13.2 9.2 0.3 41 5.7 WSW 11 17 6 9 1017.0 - 0.0
14/02:30am 13.1 9.4 0.2 41 5.7 WSW 9 17 5 9 1017.0 - 0.0
14/02:20am 13.1 9.5 0.5 42 5.6 SW 9 19 5 10 1017.3 - 0.0
14/02:10am 13.3 10.1 0.9 42 5.5 SW 7 13 4 7 1017.6 - 0.0
14/02:00am 13.6 10.4 0.8 41 5.7 W 7 17 4 9 1017.7 - 0.0
14/01:50am 13.5 9.5 0.6 41 5.7 W 11 22 6 12 1017.7 - 0.0
14/01:40am 13.6 9.6 0.8 41 5.7 W 11 19 6 10 1017.9 - 0.0
14/01:30am 13.7 7.6 0.6 40 5.8 NW 22 26 12 14 1018.1 - 0.0
14/01:20am 13.5 8.0 0.8 42 5.7 W 19 32 10 17 1017.7 - 0.0
14/01:10am 13.4 9.8 0.7 42 5.7 W 9 17 5 9 1018.2 - 0.0
14/01:00am 13.3 9.7 0.5 41 5.7 W 9 15 5 8 1018.4 - 0.0
14/12:50am 13.0 10.0 0.8 43 5.4 SW 6 11 3 6 1018.3 - 0.0
14/12:40am 13.1 10.0 0.3 41 5.6 W 6 11 3 6 1018.2 - 0.0
14/12:30am 13.2 9.6 0.8 42 5.5 W 9 20 5 11 1018.4 - 0.0
14/12:20am 13.0 9.8 0.6 42 5.5 W 7 15 4 8 1018.4 - 0.0
14/12:10am 13.3 9.3 0.7 42 5.6 WSW 11 20 6 11 1018.7 - 0.0
14/12:00am 13.2 9.2 0.8 42 5.5 WSW 11 19 6 10 1018.9 - 0.0
 
Date/Time
EST
Temp
°C
App
Temp
°C
Dew
Point
°C
Rel
Hum
%
Delta-T
°C
Wind Press
QNH
hPa
Press
MSL
hPa
Rain since
9am
mm
Dir  Spd
km/h
Gust
km/h
Spd
kts
Gust
kts
13/11:50pm 13.2 10.2 0.6 42 5.6 WSW 6 11 3 6 1019.0 - 0.0

Other formats

Comma delimited format used in spreadsheet applications
http://www.bom.gov.au/fwo/IDN60801/IDN60801.99762.axf

JavaScript Object Notation format (JSON) in row-major order
http://www.bom.gov.au/fwo/IDN60801/IDN60801.99762.json

Data quality

Most of these data are generated automatically and are frequently updated. Quality checks on data are not normally performed. It is possible for incorrect values to appear. Refer to information at About Latest Weather Observations and please check the disclaimer before using these data.